sensor_id;sensor_type;location;lat;lon;timestamp;pressure;altitude;pressure_sealevel;temperature;humidity
5651;BME280;40241;52.684;9.758;2022-08-03T00:00:46;101289.91;;;23.89;46.66
5651;BME280;40241;52.684;9.758;2022-08-03T00:03:12;101285.25;;;23.83;46.73
5651;BME280;40241;52.684;9.758;2022-08-03T00:05:37;101289.22;;;23.80;46.57
5651;BME280;40241;52.684;9.758;2022-08-03T00:08:03;101294.69;;;23.78;46.76
5651;BME280;40241;52.684;9.758;2022-08-03T00:10:29;101293.75;;;23.76;46.59
5651;BME280;40241;52.684;9.758;2022-08-03T00:12:54;101289.81;;;23.71;46.71
5651;BME280;40241;52.684;9.758;2022-08-03T00:15:19;101286.84;;;23.69;46.69
5651;BME280;40241;52.684;9.758;2022-08-03T00:17:45;101290.78;;;23.66;46.72
5651;BME280;40241;52.684;9.758;2022-08-03T00:20:11;101283.47;;;23.63;46.83
5651;BME280;40241;52.684;9.758;2022-08-03T00:22:36;101283.88;;;23.60;46.83
5651;BME280;40241;52.684;9.758;2022-08-03T00:25:02;101288.56;;;23.57;46.72
5651;BME280;40241;52.684;9.758;2022-08-03T00:27:28;101279.03;;;23.53;46.99
5651;BME280;40241;52.684;9.758;2022-08-03T00:29:53;101280.91;;;23.50;46.92
5651;BME280;40241;52.684;9.758;2022-08-03T00:32:18;101288.44;;;23.48;47.11
5651;BME280;40241;52.684;9.758;2022-08-03T00:34:43;101277.56;;;23.44;46.60
5651;BME280;40241;52.684;9.758;2022-08-03T00:37:09;101284.34;;;23.41;47.00
5651;BME280;40241;52.684;9.758;2022-08-03T00:39:34;101282.66;;;23.38;47.13
5651;BME280;40241;52.684;9.758;2022-08-03T00:42:04;101285.88;;;23.35;47.41
5651;BME280;40241;52.684;9.758;2022-08-03T00:44:29;101286.22;;;23.31;47.12
5651;BME280;40241;52.684;9.758;2022-08-03T00:46:55;101281.56;;;23.26;47.37
5651;BME280;40241;52.684;9.758;2022-08-03T00:49:20;101276.50;;;23.25;47.25
5651;BME280;40241;52.684;9.758;2022-08-03T00:51:46;101276.13;;;23.21;47.66
5651;BME280;40241;52.684;9.758;2022-08-03T00:54:12;101279.53;;;23.19;47.90
5651;BME280;40241;52.684;9.758;2022-08-03T00:56:38;101278.75;;;23.19;47.99
5651;BME280;40241;52.684;9.758;2022-08-03T00:59:04;101277.06;;;23.16;48.09
5651;BME280;40241;52.684;9.758;2022-08-03T01:01:29;101278.41;;;23.15;47.91
5651;BME280;40241;52.684;9.758;2022-08-03T01:03:55;101272.97;;;23.09;47.90
5651;BME280;40241;52.684;9.758;2022-08-03T01:12:00;101259.53;;;23.00;48.43
5651;BME280;40241;52.684;9.758;2022-08-03T01:14:54;101264.03;;;22.95;48.61
5651;BME280;40241;52.684;9.758;2022-08-03T01:17:32;101260.84;;;22.91;48.48
5651;BME280;40241;52.684;9.758;2022-08-03T01:20:07;101262.75;;;22.89;48.41
5651;BME280;40241;52.684;9.758;2022-08-03T01:30:36;101257.34;;;22.76;48.33
5651;BME280;40241;52.684;9.758;2022-08-03T01:33:07;101256.41;;;22.73;48.31
5651;BME280;40241;52.684;9.758;2022-08-03T01:36:03;101261.44;;;22.67;48.97
5651;BME280;40241;52.684;9.758;2022-08-03T01:38:33;101262.59;;;22.64;48.37
5651;BME280;40241;52.684;9.758;2022-08-03T01:41:05;101261.47;;;22.60;48.84
5651;BME280;40241;52.684;9.758;2022-08-03T01:43:31;101267.63;;;22.58;48.56
5651;BME280;40241;52.684;9.758;2022-08-03T01:45:57;101266.69;;;22.56;48.68
5651;BME280;40241;52.684;9.758;2022-08-03T01:48:23;101270.59;;;22.53;48.79
5651;BME280;40241;52.684;9.758;2022-08-03T01:53:16;101262.56;;;22.49;48.68
5651;BME280;40241;52.684;9.758;2022-08-03T01:55:48;101261.63;;;22.47;49.19
5651;BME280;40241;52.684;9.758;2022-08-03T01:58:17;101262.75;;;22.44;48.76
5651;BME280;40241;52.684;9.758;2022-08-03T02:00:45;101257.53;;;22.40;48.94
5651;BME280;40241;52.684;9.758;2022-08-03T02:03:12;101257.91;;;22.36;49.00
5651;BME280;40241;52.684;9.758;2022-08-03T02:05:39;101271.53;;;22.32;49.09
5651;BME280;40241;52.684;9.758;2022-08-03T02:08:07;101257.13;;;22.28;49.08
5651;BME280;40241;52.684;9.758;2022-08-03T02:10:34;101258.28;;;22.25;49.26
5651;BME280;40241;52.684;9.758;2022-08-03T02:13:02;101256.00;;;22.24;49.22
5651;BME280;40241;52.684;9.758;2022-08-03T02:15:28;101260.69;;;22.21;49.30
5651;BME280;40241;52.684;9.758;2022-08-03T02:17:56;101258.81;;;22.16;49.46
5651;BME280;40241;52.684;9.758;2022-08-03T02:20:22;101254.31;;;22.13;49.48
5651;BME280;40241;52.684;9.758;2022-08-03T02:22:48;101246.47;;;22.12;49.41
5651;BME280;40241;52.684;9.758;2022-08-03T02:25:14;101256.00;;;22.09;49.58
5651;BME280;40241;52.684;9.758;2022-08-03T02:27:47;101253.56;;;22.05;50.09
5651;BME280;40241;52.684;9.758;2022-08-03T02:30:14;101253.38;;;22.03;49.88
5651;BME280;40241;52.684;9.758;2022-08-03T02:32:43;101247.59;;;22.01;49.94
5651;BME280;40241;52.684;9.758;2022-08-03T02:35:14;101247.03;;;22.03;49.84
5651;BME280;40241;52.684;9.758;2022-08-03T02:37:45;101248.88;;;22.00;49.94
5651;BME280;40241;52.684;9.758;2022-08-03T02:40:11;101251.31;;;21.96;49.88
5651;BME280;40241;52.684;9.758;2022-08-03T02:42:39;101250.19;;;21.92;49.84
5651;BME280;40241;52.684;9.758;2022-08-03T02:45:08;101249.25;;;21.89;50.05
5651;BME280;40241;52.684;9.758;2022-08-03T02:47:39;101246.81;;;21.86;50.13
5651;BME280;40241;52.684;9.758;2022-08-03T02:50:10;101248.09;;;21.85;50.05
5651;BME280;40241;52.684;9.758;2022-08-03T02:52:37;101242.09;;;21.81;50.01
5651;BME280;40241;52.684;9.758;2022-08-03T02:55:05;101243.94;;;21.78;50.12
5651;BME280;40241;52.684;9.758;2022-08-03T02:57:33;101234.59;;;21.76;50.12
5651;BME280;40241;52.684;9.758;2022-08-03T03:00:00;101236.28;;;21.71;50.24
5651;BME280;40241;52.684;9.758;2022-08-03T03:02:27;101244.47;;;21.69;50.37
5651;BME280;40241;52.684;9.758;2022-08-03T03:04:54;101243.56;;;21.67;50.26
5651;BME280;40241;52.684;9.758;2022-08-03T03:07:20;101242.81;;;21.66;50.32
5651;BME280;40241;52.684;9.758;2022-08-03T03:09:46;101241.09;;;21.63;50.38
5651;BME280;40241;52.684;9.758;2022-08-03T03:12:12;101250.06;;;21.61;50.43
5651;BME280;40241;52.684;9.758;2022-08-03T03:14:39;101246.13;;;21.57;50.59
5651;BME280;40241;52.684;9.758;2022-08-03T03:17:08;101252.09;;;21.53;50.74
5651;BME280;40241;52.684;9.758;2022-08-03T03:19:34;101242.97;;;21.53;50.60
5651;BME280;40241;52.684;9.758;2022-08-03T03:22:02;101245.56;;;21.51;50.61
5651;BME280;40241;52.684;9.758;2022-08-03T03:24:29;101234.16;;;21.49;50.67
5651;BME280;40241;52.684;9.758;2022-08-03T03:26:55;101245.19;;;21.47;50.68
5651;BME280;40241;52.684;9.758;2022-08-03T03:29:21;101249.84;;;21.44;50.73
5651;BME280;40241;52.684;9.758;2022-08-03T03:31:46;101248.88;;;21.42;50.79
5651;BME280;40241;52.684;9.758;2022-08-03T03:34:12;101249.97;;;21.39;50.84
5651;BME280;40241;52.684;9.758;2022-08-03T03:36:37;101245.50;;;21.36;50.88
5651;BME280;40241;52.684;9.758;2022-08-03T03:39:03;101244.56;;;21.33;50.94
5651;BME280;40241;52.684;9.758;2022-08-03T03:41:29;101249.22;;;21.31;50.94
5651;BME280;40241;52.684;9.758;2022-08-03T03:43:54;101243.97;;;21.27;51.05
5651;BME280;40241;52.684;9.758;2022-08-03T03:46:20;101251.63;;;21.27;51.15
5651;BME280;40241;52.684;9.758;2022-08-03T03:48:45;101242.09;;;21.22;51.18
5651;BME280;40241;52.684;9.758;2022-08-03T03:51:11;101235.53;;;21.20;51.29
5651;BME280;40241;52.684;9.758;2022-08-03T03:53:37;101242.97;;;21.17;51.16
5651;BME280;40241;52.684;9.758;2022-08-03T03:56:02;101246.34;;;21.16;51.32
5651;BME280;40241;52.684;9.758;2022-08-03T03:58:28;101246.34;;;21.16;51.34
5651;BME280;40241;52.684;9.758;2022-08-03T04:00:54;101238.50;;;21.14;51.33
5651;BME280;40241;52.684;9.758;2022-08-03T04:03:19;101234.00;;;21.11;51.35
5651;BME280;40241;52.684;9.758;2022-08-03T04:05:45;101241.44;;;21.09;51.45
5651;BME280;40241;52.684;9.758;2022-08-03T04:08:29;101244.59;;;21.05;51.38
5651;BME280;40241;52.684;9.758;2022-08-03T04:13:57;101242.13;;;21.02;51.69
5651;BME280;40241;52.684;9.758;2022-08-03T04:16:26;101246.22;;;21.01;51.56
5651;BME280;40241;52.684;9.758;2022-08-03T04:18:56;101243.78;;;20.97;51.79
5651;BME280;40241;52.684;9.758;2022-08-03T04:21:24;101241.53;;;20.96;51.56
5651;BME280;40241;52.684;9.758;2022-08-03T04:23:52;101252.53;;;20.93;51.74
5651;BME280;40241;52.684;9.758;2022-08-03T04:26:21;101250.09;;;20.90;51.85
5651;BME280;40241;52.684;9.758;2022-08-03T04:28:50;101255.31;;;20.93;51.81
5651;BME280;40241;52.684;9.758;2022-08-03T04:31:19;101253.81;;;20.92;51.91
5651;BME280;40241;52.684;9.758;2022-08-03T04:33:46;101252.53;;;20.93;51.84
5651;BME280;40241;52.684;9.758;2022-08-03T04:36:15;101258.13;;;20.93;51.92
5651;BME280;40241;52.684;9.758;2022-08-03T04:39:38;101252.88;;;20.90;52.50
5651;BME280;40241;52.684;9.758;2022-08-03T04:41:59;101259.97;;;20.91;52.00
5651;BME280;40241;52.684;9.758;2022-08-03T04:44:26;101259.41;;;20.92;51.89
5651;BME280;40241;52.684;9.758;2022-08-03T04:46:52;101268.56;;;20.93;51.93
5651;BME280;40241;52.684;9.758;2022-08-03T04:49:19;101265.00;;;20.92;52.03
5651;BME280;40241;52.684;9.758;2022-08-03T04:51:47;101273.63;;;20.95;52.19
5651;BME280;40241;52.684;9.758;2022-08-03T04:54:13;101275.66;;;20.94;52.16
5651;BME280;40241;52.684;9.758;2022-08-03T04:56:41;101265.22;;;20.95;52.08
5651;BME280;40241;52.684;9.758;2022-08-03T04:59:07;101261.13;;;20.96;52.27
5651;BME280;40241;52.684;9.758;2022-08-03T05:01:32;101260.56;;;20.97;52.19
5651;BME280;40241;52.684;9.758;2022-08-03T05:03:58;101269.91;;;21.00;52.32
5651;BME280;40241;52.684;9.758;2022-08-03T05:06:23;101261.50;;;21.00;52.06
5651;BME280;40241;52.684;9.758;2022-08-03T05:08:48;101263.03;;;21.01;52.09
5651;BME280;40241;52.684;9.758;2022-08-03T05:11:15;101266.56;;;21.01;52.33
5651;BME280;40241;52.684;9.758;2022-08-03T05:13:40;101262.69;;;21.04;52.43
5651;BME280;40241;52.684;9.758;2022-08-03T05:16:06;101268.47;;;21.06;52.38
5651;BME280;40241;52.684;9.758;2022-08-03T05:18:31;101259.75;;;21.10;52.44
5651;BME280;40241;52.684;9.758;2022-08-03T05:20:56;101272.09;;;21.14;52.57
5651;BME280;40241;52.684;9.758;2022-08-03T05:23:22;101264.09;;;21.18;52.40
5651;BME280;40241;52.684;9.758;2022-08-03T05:25:47;101262.22;;;21.21;52.46
5651;BME280;40241;52.684;9.758;2022-08-03T05:28:12;101264.47;;;21.22;52.49
5651;BME280;40241;52.684;9.758;2022-08-03T05:30:38;101270.66;;;21.28;52.48
5651;BME280;40241;52.684;9.758;2022-08-03T05:33:03;101268.25;;;21.32;52.53
5651;BME280;40241;52.684;9.758;2022-08-03T05:35:30;101261.00;;;21.37;52.59
5651;BME280;40241;52.684;9.758;2022-08-03T05:37:55;101269.03;;;21.40;52.63
5651;BME280;40241;52.684;9.758;2022-08-03T05:40:21;101272.44;;;21.46;52.59
5651;BME280;40241;52.684;9.758;2022-08-03T05:42:46;101270.75;;;21.51;52.63
5651;BME280;40241;52.684;9.758;2022-08-03T05:45:12;101269.28;;;21.57;52.67
5651;BME280;40241;52.684;9.758;2022-08-03T05:47:42;101271.91;;;21.63;52.81
5651;BME280;40241;52.684;9.758;2022-08-03T05:50:09;101273.25;;;21.70;52.56
5651;BME280;40241;52.684;9.758;2022-08-03T05:52:35;101266.16;;;21.76;52.75
5651;BME280;40241;52.684;9.758;2022-08-03T05:55:00;101272.34;;;21.82;52.63
5651;BME280;40241;52.684;9.758;2022-08-03T05:57:26;101266.81;;;21.90;52.70
5651;BME280;40241;52.684;9.758;2022-08-03T05:59:51;101261.22;;;21.97;52.72
5651;BME280;40241;52.684;9.758;2022-08-03T06:02:17;101268.34;;;22.06;52.81
5651;BME280;40241;52.684;9.758;2022-08-03T06:04:42;101257.13;;;22.13;52.76
5651;BME280;40241;52.684;9.758;2022-08-03T06:07:07;101253.78;;;22.22;52.74
5651;BME280;40241;52.684;9.758;2022-08-03T06:09:33;101257.31;;;22.30;52.82
5651;BME280;40241;52.684;9.758;2022-08-03T06:11:58;101257.53;;;22.40;52.66
5651;BME280;40241;52.684;9.758;2022-08-03T06:14:23;101254.69;;;22.48;52.91
5651;BME280;40241;52.684;9.758;2022-08-03T06:16:49;101260.50;;;22.57;52.70
5651;BME280;40241;52.684;9.758;2022-08-03T06:19:14;101260.72;;;22.67;52.69
5651;BME280;40241;52.684;9.758;2022-08-03T06:21:40;101256.59;;;22.75;52.76
5651;BME280;40241;52.684;9.758;2022-08-03T06:24:05;101248.91;;;22.83;52.81
5651;BME280;40241;52.684;9.758;2022-08-03T06:26:31;101262.72;;;22.96;52.95
5651;BME280;40241;52.684;9.758;2022-08-03T06:28:56;101260.28;;;23.08;52.98
5651;BME280;40241;52.684;9.758;2022-08-03T06:31:24;101261.53;;;23.22;52.91
5651;BME280;40241;52.684;9.758;2022-08-03T06:33:50;101257.38;;;23.38;52.55
5651;BME280;40241;52.684;9.758;2022-08-03T06:36:15;101261.06;;;23.56;52.66
5651;BME280;40241;52.684;9.758;2022-08-03T06:38:41;101262.47;;;23.72;52.59
5651;BME280;40241;52.684;9.758;2022-08-03T06:41:06;101264.03;;;23.90;52.53
5651;BME280;40241;52.684;9.758;2022-08-03T06:43:31;101263.00;;;24.10;52.43
5651;BME280;40241;52.684;9.758;2022-08-03T06:46:01;101264.75;;;24.30;52.21
5651;BME280;40241;52.684;9.758;2022-08-03T06:48:27;101263.06;;;24.52;51.83
5651;BME280;40241;52.684;9.758;2022-08-03T06:50:52;101263.25;;;24.71;51.63
5651;BME280;40241;52.684;9.758;2022-08-03T06:53:17;101271.91;;;24.90;51.58
5651;BME280;40241;52.684;9.758;2022-08-03T06:55:43;101268.53;;;25.09;50.94
5651;BME280;40241;52.684;9.758;2022-08-03T06:58:08;101281.47;;;25.29;50.82
5651;BME280;40241;52.684;9.758;2022-08-03T07:00:33;101280.72;;;25.46;50.53
5651;BME280;40241;52.684;9.758;2022-08-03T07:02:59;101277.47;;;25.66;50.29
5651;BME280;40241;52.684;9.758;2022-08-03T07:05:24;101276.66;;;25.83;49.90
5651;BME280;40241;52.684;9.758;2022-08-03T07:07:53;101277.94;;;25.99;49.63
5651;BME280;40241;52.684;9.758;2022-08-03T07:10:18;101277.31;;;26.18;49.51
5651;BME280;40241;52.684;9.758;2022-08-03T07:12:43;101281.97;;;26.32;49.22
5651;BME280;40241;52.684;9.758;2022-08-03T07:15:09;101287.03;;;26.43;49.09
5651;BME280;40241;52.684;9.758;2022-08-03T07:17:35;101285.75;;;26.54;48.79
5651;BME280;40241;52.684;9.758;2022-08-03T07:20:03;101287.28;;;26.64;48.66
5651;BME280;40241;52.684;9.758;2022-08-03T07:22:29;101288.97;;;26.77;48.13
5651;BME280;40241;52.684;9.758;2022-08-03T07:24:54;101282.44;;;26.94;47.71
5651;BME280;40241;52.684;9.758;2022-08-03T07:27:20;101280.22;;;27.11;47.49
5651;BME280;40241;52.684;9.758;2022-08-03T07:29:46;101278.13;;;27.31;47.04
5651;BME280;40241;52.684;9.758;2022-08-03T07:32:12;101280.69;;;27.46;46.85
5651;BME280;40241;52.684;9.758;2022-08-03T07:34:37;101273.09;;;27.58;46.49
5651;BME280;40241;52.684;9.758;2022-08-03T07:37:02;101283.16;;;27.71;46.21
5651;BME280;40241;52.684;9.758;2022-08-03T07:39:27;101284.03;;;27.83;45.94
5651;BME280;40241;52.684;9.758;2022-08-03T07:41:53;101280.56;;;27.94;45.83
5651;BME280;40241;52.684;9.758;2022-08-03T07:44:19;101287.75;;;28.04;45.45
5651;BME280;40241;52.684;9.758;2022-08-03T07:46:45;101292.47;;;28.11;45.08
5651;BME280;40241;52.684;9.758;2022-08-03T07:49:10;101282.59;;;28.22;45.10
5651;BME280;40241;52.684;9.758;2022-08-03T07:51:36;101287.91;;;28.37;44.83
5651;BME280;40241;52.684;9.758;2022-08-03T07:54:02;101292.56;;;28.54;44.47
5651;BME280;40241;52.684;9.758;2022-08-03T07:56:27;101283.59;;;28.67;44.35
5651;BME280;40241;52.684;9.758;2022-08-03T07:58:53;101279.47;;;28.79;43.96
5651;BME280;40241;52.684;9.758;2022-08-03T08:01:19;101293.72;;;28.91;43.78
5651;BME280;40241;52.684;9.758;2022-08-03T08:03:45;101287.50;;;29.04;43.31
5651;BME280;40241;52.684;9.758;2022-08-03T08:06:11;101293.81;;;29.14;43.29
5651;BME280;40241;52.684;9.758;2022-08-03T08:08:37;101289.59;;;29.25;43.35
5651;BME280;40241;52.684;9.758;2022-08-03T08:11:03;101298.75;;;29.35;42.69
5651;BME280;40241;52.684;9.758;2022-08-03T08:13:28;101286.72;;;29.46;42.69
5651;BME280;40241;52.684;9.758;2022-08-03T08:15:53;101297.84;;;29.53;42.64
5651;BME280;40241;52.684;9.758;2022-08-03T08:18:19;101286.03;;;29.57;42.42
5651;BME280;40241;52.684;9.758;2022-08-03T08:20:44;101286.41;;;29.63;42.35
5651;BME280;40241;52.684;9.758;2022-08-03T08:23:10;101283.19;;;29.68;42.19
5651;BME280;40241;52.684;9.758;2022-08-03T08:25:35;101284.81;;;29.72;42.43
5651;BME280;40241;52.684;9.758;2022-08-03T08:28:00;101286.72;;;29.79;42.08
5651;BME280;40241;52.684;9.758;2022-08-03T08:30:30;101282.41;;;29.89;41.94
5651;BME280;40241;52.684;9.758;2022-08-03T08:32:56;101283.31;;;30.03;42.10
5651;BME280;40241;52.684;9.758;2022-08-03T08:35:22;101286.13;;;30.15;41.62
5651;BME280;40241;52.684;9.758;2022-08-03T08:37:47;101284.66;;;30.25;41.65
5651;BME280;40241;52.684;9.758;2022-08-03T08:40:13;101286.19;;;30.38;41.28
5651;BME280;40241;52.684;9.758;2022-08-03T08:42:39;101288.28;;;30.49;41.00
5651;BME280;40241;52.684;9.758;2022-08-03T08:45:05;101283.31;;;30.61;41.07
5651;BME280;40241;52.684;9.758;2022-08-03T08:47:36;101286.16;;;30.73;40.51
5651;BME280;40241;52.684;9.758;2022-08-03T08:50:02;101286.09;;;30.84;40.76
5651;BME280;40241;52.684;9.758;2022-08-03T08:52:29;101288.94;;;30.96;40.45
5651;BME280;40241;52.684;9.758;2022-08-03T08:54:57;101289.66;;;31.08;40.08
5651;BME280;40241;52.684;9.758;2022-08-03T08:57:26;101289.13;;;31.23;39.87
5651;BME280;40241;52.684;9.758;2022-08-03T08:59:53;101287.06;;;31.37;40.11
5651;BME280;40241;52.684;9.758;2022-08-03T09:02:21;101285.91;;;31.54;39.67
5651;BME280;40241;52.684;9.758;2022-08-03T09:04:47;101296.19;;;31.72;39.51
5651;BME280;40241;52.684;9.758;2022-08-03T09:07:13;101290.44;;;31.84;39.27
5651;BME280;40241;52.684;9.758;2022-08-03T09:09:39;101288.66;;;31.91;39.22
5651;BME280;40241;52.684;9.758;2022-08-03T09:12:07;101272.25;;;32.03;38.86
5651;BME280;40241;52.684;9.758;2022-08-03T09:14:33;101280.59;;;32.12;38.57
5651;BME280;40241;52.684;9.758;2022-08-03T09:16:59;101275.44;;;32.22;38.39
5651;BME280;40241;52.684;9.758;2022-08-03T09:19:29;101284.53;;;32.32;38.29
5651;BME280;40241;52.684;9.758;2022-08-03T09:22:12;101288.53;;;32.41;36.17
5651;BME280;40241;52.684;9.758;2022-08-03T09:25:05;101281.34;;;32.40;37.45
5651;BME280;40241;52.684;9.758;2022-08-03T09:27:41;101286.44;;;32.55;37.14
5651;BME280;40241;52.684;9.758;2022-08-03T09:30:12;101289.81;;;32.65;37.48
5651;BME280;40241;52.684;9.758;2022-08-03T09:32:38;101282.63;;;32.78;37.61
5651;BME280;40241;52.684;9.758;2022-08-03T09:35:04;101281.84;;;32.91;37.45
5651;BME280;40241;52.684;9.758;2022-08-03T09:37:30;101275.22;;;33.00;36.92
5651;BME280;40241;52.684;9.758;2022-08-03T09:39:55;101281.22;;;33.06;37.06
5651;BME280;40241;52.684;9.758;2022-08-03T09:42:21;101274.25;;;33.09;36.94
5651;BME280;40241;52.684;9.758;2022-08-03T09:44:50;101283.28;;;33.19;36.75
5651;BME280;40241;52.684;9.758;2022-08-03T09:47:28;101284.69;;;33.34;36.01
5651;BME280;40241;52.684;9.758;2022-08-03T09:50:01;101289.97;;;33.39;36.24
5651;BME280;40241;52.684;9.758;2022-08-03T09:52:36;101281.59;;;33.43;35.76
5651;BME280;40241;52.684;9.758;2022-08-03T09:55:13;101282.19;;;33.55;35.63
5651;BME280;40241;52.684;9.758;2022-08-03T09:57:39;101284.06;;;33.64;36.28
5651;BME280;40241;52.684;9.758;2022-08-03T10:00:13;101274.22;;;33.67;35.30
5651;BME280;40241;52.684;9.758;2022-08-03T10:02:41;101283.06;;;33.73;35.66
5651;BME280;40241;52.684;9.758;2022-08-03T10:05:08;101281.88;;;33.78;35.83
5651;BME280;40241;52.684;9.758;2022-08-03T10:07:49;101264.94;;;33.82;34.90
5651;BME280;40241;52.684;9.758;2022-08-03T10:10:15;101264.59;;;33.90;35.46
5651;BME280;40241;52.684;9.758;2022-08-03T10:12:42;101269.63;;;33.91;35.13
5651;BME280;40241;52.684;9.758;2022-08-03T10:15:09;101268.53;;;33.83;34.94
5651;BME280;40241;52.684;9.758;2022-08-03T10:17:35;101266.31;;;33.81;35.16
5651;BME280;40241;52.684;9.758;2022-08-03T10:20:03;101266.50;;;33.85;35.10
5651;BME280;40241;52.684;9.758;2022-08-03T10:22:33;101263.94;;;33.91;34.83
5651;BME280;40241;52.684;9.758;2022-08-03T10:25:02;101266.88;;;33.93;34.39
5651;BME280;40241;52.684;9.758;2022-08-03T10:27:36;101253.59;;;34.00;34.07
5651;BME280;40241;52.684;9.758;2022-08-03T10:30:05;101254.56;;;34.05;33.79
5651;BME280;40241;52.684;9.758;2022-08-03T10:32:38;101258.34;;;34.09;33.63
5651;BME280;40241;52.684;9.758;2022-08-03T10:35:12;101250.69;;;34.14;33.92
5651;BME280;40241;52.684;9.758;2022-08-03T10:37:54;101238.84;;;34.21;33.16
5651;BME280;40241;52.684;9.758;2022-08-03T10:40:21;101243.38;;;34.26;33.31
5651;BME280;40241;52.684;9.758;2022-08-03T10:42:50;101244.13;;;34.27;33.06
5651;BME280;40241;52.684;9.758;2022-08-03T10:45:20;101247.06;;;34.29;33.01
5651;BME280;40241;52.684;9.758;2022-08-03T10:47:48;101244.22;;;34.29;33.17
5651;BME280;40241;52.684;9.758;2022-08-03T10:50:16;101238.50;;;34.29;33.09
5651;BME280;40241;52.684;9.758;2022-08-03T10:52:59;101245.84;;;34.34;31.83
5651;BME280;40241;52.684;9.758;2022-08-03T10:55:34;101246.03;;;34.38;32.57
5651;BME280;40241;52.684;9.758;2022-08-03T11:01:10;101240.22;;;34.36;32.69
5651;BME280;40241;52.684;9.758;2022-08-03T11:04:14;101245.63;;;34.45;31.69
5651;BME280;40241;52.684;9.758;2022-08-03T11:06:40;101242.69;;;34.59;32.62
5651;BME280;40241;52.684;9.758;2022-08-03T11:11:34;101244.34;;;34.64;32.05
5651;BME280;40241;52.684;9.758;2022-08-03T11:14:05;101248.19;;;34.71;31.33
5651;BME280;40241;52.684;9.758;2022-08-03T11:16:41;101239.09;;;34.76;32.02
5651;BME280;40241;52.684;9.758;2022-08-03T11:19:14;101244.28;;;34.80;31.58
5651;BME280;40241;52.684;9.758;2022-08-03T11:27:23;101242.88;;;34.81;30.24
5651;BME280;40241;52.684;9.758;2022-08-03T11:35:20;101237.13;;;35.14;30.76
5651;BME280;40241;52.684;9.758;2022-08-03T11:42:58;101232.66;;;35.46;30.84
5651;BME280;40241;52.684;9.758;2022-08-03T11:45:24;101230.13;;;35.54;30.71
5651;BME280;40241;52.684;9.758;2022-08-03T11:47:53;101228.16;;;35.59;30.02
5651;BME280;40241;52.684;9.758;2022-08-03T11:50:20;101222.44;;;35.59;30.10
5651;BME280;40241;52.684;9.758;2022-08-03T11:52:46;101228.25;;;35.61;30.39
5651;BME280;40241;52.684;9.758;2022-08-03T11:55:13;101234.16;;;35.65;30.41
5651;BME280;40241;52.684;9.758;2022-08-03T11:57:39;101233.22;;;35.78;30.79
5651;BME280;40241;52.684;9.758;2022-08-03T12:05:47;101230.31;;;36.15;29.42
5651;BME280;40241;52.684;9.758;2022-08-03T12:08:15;101228.38;;;36.02;29.85
5651;BME280;40241;52.684;9.758;2022-08-03T12:10:46;101230.59;;;36.03;30.09
5651;BME280;40241;52.684;9.758;2022-08-03T12:13:12;101231.69;;;36.14;30.23
5651;BME280;40241;52.684;9.758;2022-08-03T12:15:37;101224.78;;;36.21;29.85
5651;BME280;40241;52.684;9.758;2022-08-03T12:18:12;101215.28;;;36.36;29.87
5651;BME280;40241;52.684;9.758;2022-08-03T12:20:38;101215.78;;;36.50;29.68
5651;BME280;40241;52.684;9.758;2022-08-03T12:23:05;101208.13;;;36.57;29.82
5651;BME280;40241;52.684;9.758;2022-08-03T12:25:32;101214.72;;;36.61;29.73
5651;BME280;40241;52.684;9.758;2022-08-03T12:30:36;101212.22;;;36.71;29.26
5651;BME280;40241;52.684;9.758;2022-08-03T12:33:13;101208.13;;;36.78;28.81
5651;BME280;40241;52.684;9.758;2022-08-03T12:35:38;101214.78;;;36.85;29.40
5651;BME280;40241;52.684;9.758;2022-08-03T12:38:04;101195.59;;;36.90;29.00
5651;BME280;40241;52.684;9.758;2022-08-03T12:40:30;101201.41;;;36.92;28.79
5651;BME280;40241;52.684;9.758;2022-08-03T12:42:55;101207.38;;;36.98;29.02
5651;BME280;40241;52.684;9.758;2022-08-03T12:45:22;101198.69;;;36.96;29.16
5651;BME280;40241;52.684;9.758;2022-08-03T12:47:52;101197.47;;;37.03;29.30
5651;BME280;40241;52.684;9.758;2022-08-03T12:50:31;101200.06;;;37.16;28.69
5651;BME280;40241;52.684;9.758;2022-08-03T12:52:59;101201.03;;;37.25;28.63
5651;BME280;40241;52.684;9.758;2022-08-03T12:55:25;101198.28;;;37.29;28.74
5651;BME280;40241;52.684;9.758;2022-08-03T12:58:05;101186.84;;;37.31;28.46
5651;BME280;40241;52.684;9.758;2022-08-03T13:00:32;101191.34;;;37.36;28.38
5651;BME280;40241;52.684;9.758;2022-08-03T13:03:03;101190.25;;;37.47;28.42
5651;BME280;40241;52.684;9.758;2022-08-03T13:05:29;101189.09;;;37.56;28.25
5651;BME280;40241;52.684;9.758;2022-08-03T13:07:54;101193.59;;;37.63;28.31
5651;BME280;40241;52.684;9.758;2022-08-03T13:10:31;101194.19;;;37.60;27.86
5651;BME280;40241;52.684;9.758;2022-08-03T13:12:58;101189.03;;;37.54;28.04
5651;BME280;40241;52.684;9.758;2022-08-03T13:15:25;101182.44;;;37.49;28.08
5651;BME280;40241;52.684;9.758;2022-08-03T13:17:53;101176.41;;;37.39;27.98
5651;BME280;40241;52.684;9.758;2022-08-03T13:20:18;101174.78;;;37.34;27.90
5651;BME280;40241;52.684;9.758;2022-08-03T13:22:46;101178.25;;;37.31;28.09
5651;BME280;40241;52.684;9.758;2022-08-03T13:25:11;101179.59;;;37.28;28.37
5651;BME280;40241;52.684;9.758;2022-08-03T13:27:38;101181.19;;;37.33;28.34
5651;BME280;40241;52.684;9.758;2022-08-03T13:30:04;101181.69;;;37.25;28.70
5651;BME280;40241;52.684;9.758;2022-08-03T13:32:29;101175.25;;;37.27;28.70
5651;BME280;40241;52.684;9.758;2022-08-03T13:34:55;101175.31;;;37.29;28.44
5651;BME280;40241;52.684;9.758;2022-08-03T13:37:20;101170.25;;;37.27;28.05
5651;BME280;40241;52.684;9.758;2022-08-03T13:39:45;101175.38;;;37.31;28.02
5651;BME280;40241;52.684;9.758;2022-08-03T13:42:11;101172.91;;;37.43;28.03
5651;BME280;40241;52.684;9.758;2022-08-03T13:44:36;101166.00;;;37.52;27.75
5651;BME280;40241;52.684;9.758;2022-08-03T13:47:03;101163.34;;;37.60;27.75
5651;BME280;40241;52.684;9.758;2022-08-03T13:49:28;101166.59;;;37.72;27.55
5651;BME280;40241;52.684;9.758;2022-08-03T13:51:57;101159.06;;;37.85;27.37